createdAt,value
2023-04-02T00:00:19.632Z,100489.34
2023-04-02T00:02:56.579Z,100493.69
2023-04-02T00:05:50.589Z,100492.31
2023-04-02T00:08:27.612Z,100500.59
2023-04-02T00:10:59.142Z,100511.28
2023-04-02T00:13:34.740Z,100515.50
2023-04-02T00:16:05.529Z,100520.94
2023-04-02T00:18:35.388Z,100533.53
2023-04-02T00:21:12.940Z,100538.56
2023-04-02T00:23:44.870Z,100542.25
2023-04-02T00:26:24.941Z,100543.84
2023-04-02T00:28:53.932Z,100548.69
2023-04-02T00:31:23.580Z,100545.50
2023-04-02T00:33:53.448Z,100563.91
2023-04-02T00:36:24.471Z,100565.19
2023-04-02T00:38:57.937Z,100569.81
2023-04-02T00:41:29.834Z,100574.28
2023-04-02T00:44:01.034Z,100574.16
2023-04-02T00:46:38.500Z,100583.56
2023-04-02T00:49:11.968Z,100588.66
2023-04-02T00:51:45.516Z,100582.31
2023-04-02T00:54:20.820Z,100595.47
2023-04-02T00:56:53.257Z,100599.25
2023-04-02T00:59:27.471Z,100606.41
2023-04-02T01:02:01.672Z,100605.75
2023-04-02T01:04:34.542Z,100604.41
2023-04-02T01:07:06.718Z,100619.50
2023-04-02T01:09:52.193Z,100613.06
2023-04-02T01:12:40.945Z,100621.69
2023-04-02T01:15:17.666Z,100619.56
2023-04-02T01:17:58.645Z,100612.69
2023-04-02T01:21:07.486Z,100629.66
2023-04-02T01:23:45.944Z,100645.28
2023-04-02T01:26:27.996Z,100632.25
2023-04-02T01:29:05.129Z,100641.06
2023-04-02T01:31:34.290Z,100647.09
2023-04-02T01:34:06.974Z,100665.78
2023-04-02T01:36:42.264Z,100658.47
2023-04-02T01:39:26.883Z,100662.88
2023-04-02T01:42:04.754Z,100669.44
2023-04-02T01:44:40.630Z,100672.81
2023-04-02T01:47:13.444Z,100681.38
2023-04-02T01:49:44.235Z,100674.41
2023-04-02T01:52:18.675Z,100679.16
2023-04-02T01:54:48.671Z,100680.94
2023-04-02T01:57:18.048Z,100681.53
2023-04-02T01:59:48.207Z,100691.75
2023-04-02T02:02:17.902Z,100700.03
2023-04-02T02:04:46.583Z,100701.56
2023-04-02T02:07:17.801Z,100712.41
2023-04-02T02:09:46.809Z,100709.41
2023-04-02T02:12:16.818Z,100726.63
2023-04-02T02:14:50.419Z,100729.91
2023-04-02T02:17:24.207Z,100732.66
2023-04-02T02:19:56.922Z,100740.44
2023-04-02T02:22:30.505Z,100746.22
2023-04-02T02:25:01.336Z,100746.63
2023-04-02T02:27:48.426Z,100754.19
2023-04-02T02:30:25.580Z,100760.25
2023-04-02T02:33:00.897Z,100760.69
2023-04-02T02:35:33.611Z,100773.22
2023-04-02T02:38:26.873Z,100779.72
2023-04-02T02:40:59.692Z,100783.09
2023-04-02T02:43:29.404Z,100799.31
2023-04-02T02:46:00.206Z,100790.34
2023-04-02T02:48:40.731Z,100799.59
2023-04-02T02:51:15.700Z,100794.72
2023-04-02T02:53:51.288Z,100797.94
2023-04-02T02:56:22.767Z,100807.97
2023-04-02T02:58:53.493Z,100807.97
2023-04-02T03:01:23.662Z,100811.59
2023-04-02T03:03:56.052Z,100819.53
2023-04-02T03:06:25.427Z,100823.03
2023-04-02T03:09:02.326Z,100833.38
2023-04-02T03:11:38.016Z,100837.50
2023-04-02T03:14:13.559Z,100839.69
2023-04-02T03:16:46.949Z,100858.94
2023-04-02T03:19:28.890Z,100864.16
2023-04-02T03:22:03.314Z,100857.69
2023-04-02T03:24:37.879Z,100859.78
2023-04-02T03:27:13.511Z,100866.91
2023-04-02T03:29:45.063Z,100877.88
2023-04-02T03:32:19.224Z,100892.31
2023-04-02T03:34:52.993Z,100892.06
2023-04-02T03:37:26.892Z,100905.44
2023-04-02T03:40:01.298Z,100908.03
2023-04-02T03:42:38.207Z,100906.28
2023-04-02T03:45:12.540Z,100909.78
2023-04-02T03:47:48.297Z,100924.63
2023-04-02T03:50:22.148Z,100923.41
2023-04-02T03:52:51.171Z,100927.09
2023-04-02T03:55:23.341Z,100924.59
2023-04-02T03:58:00.806Z,100940.94
2023-04-02T04:00:37.273Z,100944.75
2023-04-02T04:03:14.446Z,100945.69
2023-04-02T04:05:49.540Z,100965.19
2023-04-02T04:08:22.122Z,100972.06
2023-04-02T04:10:54.807Z,100965.19
2023-04-02T04:13:32.342Z,100977.78
2023-04-02T04:16:05.427Z,100988.53
2023-04-02T04:18:43.316Z,100993.69
2023-04-02T04:21:22.837Z,100997.97
2023-04-02T04:23:52.951Z,100998.81
2023-04-02T04:26:25.610Z,101009.22
2023-04-02T04:29:05.944Z,101008.34
2023-04-02T04:31:40.019Z,101024.22
2023-04-02T04:34:16.501Z,101024.41
2023-04-02T04:36:54.323Z,101017.88
2023-04-02T04:39:29.998Z,101030.16
2023-04-02T04:42:02.431Z,101038.63
2023-04-02T04:44:44.040Z,101045.56
2023-04-02T04:47:17.279Z,101050.91
2023-04-02T04:49:54.206Z,101058.69
2023-04-02T04:52:26.050Z,101057.16
2023-04-02T04:54:54.870Z,101066.81
2023-04-02T04:57:35.038Z,101078.47
2023-04-02T05:00:13.018Z,101087.22
2023-04-02T05:02:49.766Z,101090.84
2023-04-02T05:05:29.307Z,101095.97
2023-04-02T05:08:00.405Z,101117.47
2023-04-02T05:10:38.508Z,101104.75
2023-04-02T05:13:14.860Z,101119.81
2023-04-02T05:15:49.877Z,101116.03
2023-04-02T05:18:26.179Z,101136.13
2023-04-02T05:21:04.025Z,101132.78
2023-04-02T05:23:36.602Z,101140.41
2023-04-02T05:26:11.688Z,101140.72
2023-04-02T05:28:46.050Z,101167.34
2023-04-02T05:31:21.153Z,101157.78
2023-04-02T05:33:51.233Z,101162.34
2023-04-02T05:36:26.758Z,101172.03
2023-04-02T05:38:57.483Z,101174.50
2023-04-02T05:41:30.491Z,101178.97
2023-04-02T05:44:07.229Z,101191.38
2023-04-02T05:46:41.993Z,101190.84
2023-04-02T05:49:19.789Z,101200.03
2023-04-02T05:51:57.034Z,101206.88
2023-04-02T05:54:29.709Z,101199.91
2023-04-02T05:57:03.664Z,101220.06
2023-04-02T05:59:35.269Z,101221.38
2023-04-02T06:02:12.917Z,101229.72
2023-04-02T06:04:51.429Z,101229.53
2023-04-02T06:07:24.884Z,101229.88
2023-04-02T06:10:03.417Z,101252.38
2023-04-02T06:12:38.819Z,101251.28
2023-04-02T06:15:13.745Z,101248.56
2023-04-02T06:17:48.764Z,101259.63
2023-04-02T06:20:19.955Z,101263.56
2023-04-02T06:22:54.717Z,101270.94
2023-04-02T06:25:29.518Z,101277.63
2023-04-02T06:28:02.597Z,101290.78
2023-04-02T06:30:36.605Z,101296.50
2023-04-02T06:33:05.688Z,101302.09
2023-04-02T06:35:36.157Z,101304.19
2023-04-02T06:38:14.647Z,101319.13
2023-04-02T06:40:46.116Z,101315.88
2023-04-02T06:43:22.186Z,101323.06
2023-04-02T06:45:54.165Z,101325.06
2023-04-02T06:48:24.796Z,101320.13
2023-04-02T06:50:59.829Z,101329.94
2023-04-02T06:53:33.225Z,101348.88
2023-04-02T06:56:07.004Z,101338.47
2023-04-02T06:58:35.680Z,101352.25
2023-04-02T07:01:04.498Z,101356.69
2023-04-02T07:03:34.103Z,101361.56
2023-04-02T07:06:04.516Z,101360.00
2023-04-02T07:08:34.460Z,101367.25
2023-04-02T07:11:03.003Z,101363.94
2023-04-02T07:13:31.563Z,101386.38
2023-04-02T07:16:00.459Z,101394.22
2023-04-02T07:18:32.048Z,101392.38
2023-04-02T07:21:01.095Z,101395.81
2023-04-02T07:23:29.769Z,101404.97
2023-04-02T07:25:59.765Z,101404.84
2023-04-02T07:28:28.310Z,101413.53
2023-04-02T07:30:57.524Z,101416.97
2023-04-02T07:33:28.206Z,101414.97
2023-04-02T07:35:58.540Z,101430.19
2023-04-02T07:38:27.242Z,101431.28
2023-04-02T07:40:55.879Z,101433.59
2023-04-02T07:43:25.869Z,101434.75
2023-04-02T07:45:54.439Z,101443.94
2023-04-02T07:48:23.332Z,101439.72
2023-04-02T07:50:51.886Z,101462.56
2023-04-02T07:53:30.626Z,101463.22
2023-04-02T07:56:01.164Z,101471.84
2023-04-02T07:58:32.623Z,101465.66
2023-04-02T08:01:03.735Z,101467.47
2023-04-02T08:03:32.889Z,101471.22
2023-04-02T08:06:01.736Z,101473.88
2023-04-02T08:08:30.538Z,101478.78
2023-04-02T08:10:59.092Z,101482.88
2023-04-02T08:13:27.634Z,101494.09
2023-04-02T08:15:59.922Z,101491.50
2023-04-02T08:18:28.559Z,101517.59
2023-04-02T08:20:57.396Z,101505.66
2023-04-02T08:23:27.156Z,101502.81
2023-04-02T08:25:56.264Z,101516.38
2023-04-02T08:28:24.805Z,101532.38
2023-04-02T08:30:53.601Z,101528.75
2023-04-02T08:33:23.700Z,101538.16
2023-04-02T08:35:52.893Z,101562.16
2023-04-02T08:38:23.103Z,101556.50
2023-04-02T08:40:54.066Z,101556.50
2023-04-02T08:44:08.306Z,101558.91
2023-04-02T08:46:44.763Z,101574.34
2023-04-02T08:49:18.783Z,101588.88
2023-04-02T08:51:48.539Z,101574.75
2023-04-02T08:54:22.778Z,101579.13
2023-04-02T08:56:56.879Z,101591.63
2023-04-02T08:59:32.919Z,101601.78
2023-04-02T09:02:20.436Z,101599.38
2023-04-02T09:04:51.076Z,101621.31
2023-04-02T09:07:19.811Z,101619.78
2023-04-02T09:09:51.090Z,101617.84
2023-04-02T09:12:21.281Z,101626.56
2023-04-02T09:15:01.421Z,101641.69
2023-04-02T09:17:34.719Z,101635.13
2023-04-02T09:20:18.516Z,101635.50
2023-04-02T09:22:48.638Z,101644.22
2023-04-02T09:25:20.433Z,101631.13
2023-04-02T09:27:51.360Z,101642.22
2023-04-02T09:30:31.007Z,101653.69
2023-04-02T09:33:02.549Z,101660.72
2023-04-02T09:35:34.183Z,101666.00
2023-04-02T09:38:20.576Z,101672.22
2023-04-02T09:40:52.127Z,101676.66
2023-04-02T09:43:22.680Z,101671.63
2023-04-02T09:46:00.389Z,101687.56
2023-04-02T09:48:32.666Z,101700.53
2023-04-02T09:51:12.529Z,101689.09
2023-04-02T09:53:42.790Z,101697.06
2023-04-02T09:56:19.457Z,101696.44
2023-04-02T09:59:03.536Z,101697.91
2023-04-02T10:01:34.372Z,101714.78
2023-04-02T10:04:05.378Z,101714.22
2023-04-02T10:06:36.504Z,101728.41
2023-04-02T10:09:21.297Z,101723.69
2023-04-02T10:11:51.905Z,101722.72
2023-04-02T10:14:25.282Z,101733.91
2023-04-02T10:16:57.906Z,101740.16
2023-04-02T10:19:35.300Z,101750.63
2023-04-02T10:22:07.199Z,101743.50
2023-04-02T10:24:36.078Z,101744.88
2023-04-02T10:27:17.947Z,101745.63
2023-04-02T10:30:10.509Z,101764.59
2023-04-02T10:32:44.171Z,101759.78
2023-04-02T10:35:21.981Z,101768.47
2023-04-02T10:38:29.204Z,101779.66
2023-04-02T10:41:02.547Z,101783.41
2023-04-02T10:43:45.351Z,101790.69
2023-04-02T10:46:24.508Z,101792.66
2023-04-02T10:49:03.213Z,101812.63
2023-04-02T10:51:40.384Z,101803.03
2023-04-02T10:54:22.589Z,101806.50
2023-04-02T10:56:55.111Z,101814.28
2023-04-02T10:59:27.258Z,101819.50
2023-04-02T11:01:59.817Z,101833.84
2023-04-02T11:04:35.249Z,101826.94
2023-04-02T11:07:14.359Z,101828.75
2023-04-02T11:09:48.531Z,101844.97
2023-04-02T11:12:24.992Z,101847.16
2023-04-02T11:14:55.443Z,101857.06
2023-04-02T11:17:25.166Z,101856.09
2023-04-02T11:19:54.115Z,101858.81
2023-04-02T11:22:24.273Z,101858.31
2023-04-02T11:24:54.624Z,101862.22
2023-04-02T11:27:28.287Z,101861.34
2023-04-02T11:30:06.807Z,101859.00
2023-04-02T11:32:39.423Z,101858.59
2023-04-02T11:35:28.300Z,101868.53
2023-04-02T11:37:58.522Z,101871.38
2023-04-02T11:40:46.820Z,101872.44
2023-04-02T11:43:52.603Z,101874.50
2023-04-02T11:46:41.108Z,101881.66
2023-04-02T11:49:41.246Z,101882.00
2023-04-02T11:52:25.720Z,101883.25
2023-04-02T11:55:03.867Z,101891.94
2023-04-02T11:58:02.936Z,101892.00
2023-04-02T12:00:52.256Z,101893.88
2023-04-02T12:03:44.984Z,101895.88
2023-04-02T12:06:25.698Z,101901.81
2023-04-02T12:09:05.930Z,101901.09
2023-04-02T12:11:37.090Z,101905.00
2023-04-02T12:14:24.280Z,101910.81
2023-04-02T12:16:54.463Z,101913.59
2023-04-02T12:19:24.166Z,101919.53
2023-04-02T12:21:54.094Z,101917.19
2023-04-02T12:24:25.646Z,101927.16
2023-04-02T12:27:14.935Z,101927.88
2023-04-02T12:29:44.056Z,101940.06
2023-04-02T12:32:23.104Z,101931.25
2023-04-02T12:34:54.389Z,101938.31
2023-04-02T12:37:25.828Z,101943.78
2023-04-02T12:39:56.835Z,101949.78
2023-04-02T12:42:33.366Z,101949.97
2023-04-02T12:45:02.864Z,101960.75
2023-04-02T12:47:32.927Z,101954.88
2023-04-02T12:50:02.965Z,101967.81
2023-04-02T12:52:32.669Z,101961.13
2023-04-02T12:55:03.786Z,101963.25
2023-04-02T12:57:40.234Z,101961.75
2023-04-02T13:00:30.772Z,101966.19
2023-04-02T13:03:20.109Z,101970.00
2023-04-02T13:05:53.325Z,101981.41
2023-04-02T13:08:26.221Z,101972.06
2023-04-02T13:10:57.656Z,101985.66
2023-04-02T13:13:31.094Z,101988.56
2023-04-02T13:16:09.830Z,101989.53
2023-04-02T13:18:40.155Z,101984.38
2023-04-02T13:21:28.465Z,101990.91
2023-04-02T13:23:57.687Z,101990.88
2023-04-02T13:26:28.628Z,101985.31
2023-04-02T13:28:58.868Z,101996.06
2023-04-02T13:31:27.796Z,101995.75
2023-04-02T13:33:57.810Z,101989.22
2023-04-02T13:36:29.290Z,102000.78
2023-04-02T13:38:58.387Z,102003.81
2023-04-02T13:41:29.468Z,101990.75
2023-04-02T13:44:01.328Z,102017.84
2023-04-02T13:46:31.786Z,102014.66
2023-04-02T13:49:01.733Z,102017.41
2023-04-02T13:51:38.036Z,102027.53
2023-04-02T13:54:11.843Z,102012.56
2023-04-02T13:56:41.296Z,102025.38
2023-04-02T13:59:09.854Z,102032.53
2023-04-02T14:01:38.896Z,102027.31
2023-04-02T14:04:10.353Z,102029.69
2023-04-02T14:07:11.627Z,102026.22
2023-04-02T14:09:53.752Z,102032.06
2023-04-02T14:12:32.246Z,102022.38
2023-04-02T14:15:23.876Z,102029.13
2023-04-02T14:18:11.916Z,102028.19
2023-04-02T14:20:51.609Z,102031.31
2023-04-02T14:23:39.175Z,102025.91
2023-04-02T14:26:18.337Z,102022.78
2023-04-02T14:28:57.613Z,102022.59
2023-04-02T14:31:34.240Z,102022.63
2023-04-02T14:34:12.798Z,102015.13
2023-04-02T14:36:56.484Z,102023.66
2023-04-02T14:39:37.241Z,102021.94
2023-04-02T14:42:13.827Z,102035.44
2023-04-02T14:44:48.838Z,102034.53
2023-04-02T14:47:23.275Z,102034.47
2023-04-02T14:49:56.101Z,102039.94
2023-04-02T14:52:30.090Z,102039.00
2023-04-02T14:55:03.453Z,102043.06
2023-04-02T14:57:36.398Z,102041.41
2023-04-02T15:00:08.445Z,102051.63
2023-04-02T15:02:43.429Z,102051.63
2023-04-02T15:05:18.483Z,102068.13
2023-04-02T15:07:53.439Z,102058.72
2023-04-02T15:10:27.405Z,102064.91
2023-04-02T15:12:57.994Z,102066.50
2023-04-02T15:15:41.049Z,102067.34
2023-04-02T15:18:12.675Z,102063.88
2023-04-02T15:20:48.996Z,102063.59
2023-04-02T15:23:29.897Z,102065.91
2023-04-02T15:26:07.975Z,102076.97
2023-04-02T15:28:41.992Z,102065.16
2023-04-02T15:31:15.040Z,102070.31
2023-04-02T15:33:46.650Z,102075.44
2023-04-02T15:36:58.328Z,102081.69
2023-04-02T15:39:59.540Z,102082.31
2023-04-02T15:42:31.568Z,102070.72
2023-04-02T15:45:18.976Z,102078.50
2023-04-02T15:48:13.270Z,102092.63
2023-04-02T15:50:52.518Z,102095.53
2023-04-02T15:53:35.930Z,102086.66
2023-04-02T15:56:19.684Z,102100.81
2023-04-02T15:59:18.934Z,102089.84
2023-04-02T16:01:55.410Z,102098.34
2023-04-02T16:04:47.257Z,102108.13
2023-04-02T16:07:37.385Z,102096.00
2023-04-02T16:10:14.198Z,102102.34
2023-04-02T16:12:44.149Z,102122.03
2023-04-02T16:15:18.872Z,102113.66
2023-04-02T16:17:52.419Z,102114.94
2023-04-02T16:20:26.003Z,102125.13
2023-04-02T16:23:01.424Z,102130.69
2023-04-02T16:25:36.018Z,102137.56
2023-04-02T16:28:16.226Z,102141.22
2023-04-02T16:30:54.993Z,102139.63
2023-04-02T16:33:36.542Z,102148.44
2023-04-02T16:36:17.868Z,102154.72
2023-04-02T16:38:58.115Z,102154.69
2023-04-02T16:41:42.796Z,102150.78
2023-04-02T16:44:29.754Z,102148.56
2023-04-02T16:47:12.965Z,102152.97
2023-04-02T16:49:49.857Z,102162.22
2023-04-02T16:52:32.739Z,102162.06
2023-04-02T16:55:23.329Z,102165.63
2023-04-02T16:58:04.202Z,102188.25
2023-04-02T17:00:43.019Z,102187.88
2023-04-02T17:03:30.058Z,102186.25
2023-04-02T17:06:05.672Z,102198.78
2023-04-02T17:08:42.345Z,102200.16
2023-04-02T17:11:16.834Z,102204.44
2023-04-02T17:13:48.353Z,102212.47
2023-04-02T17:16:21.872Z,102219.03
2023-04-02T17:18:53.398Z,102231.94
2023-04-02T17:21:26.468Z,102233.22
2023-04-02T17:23:58.382Z,102226.75
2023-04-02T17:26:30.128Z,102230.44
2023-04-02T17:29:01.461Z,102231.03
2023-04-02T17:31:35.823Z,102237.03
2023-04-02T17:34:14.113Z,102245.56
2023-04-02T17:36:51.657Z,102246.13
2023-04-02T17:39:25.576Z,102251.06
2023-04-02T17:41:59.089Z,102249.78
2023-04-02T17:44:42.732Z,102255.72
2023-04-02T17:47:20.699Z,102252.84
2023-04-02T17:50:00.550Z,102257.31
2023-04-02T17:52:36.395Z,102265.38
2023-04-02T17:55:18.361Z,102269.75
2023-04-02T17:58:01.245Z,102268.75
2023-04-02T18:00:45.717Z,102271.44
2023-04-02T18:03:47.636Z,102270.41
2023-04-02T18:06:21.576Z,102276.31
2023-04-02T18:09:02.265Z,102288.66
2023-04-02T18:11:41.550Z,102296.44
2023-04-02T18:14:25.275Z,102293.44
2023-04-02T18:17:02.545Z,102289.91
2023-04-02T18:19:41.922Z,102294.22
2023-04-02T18:22:19.331Z,102299.19
2023-04-02T18:25:09.869Z,102295.19
2023-04-02T18:27:55.052Z,102311.34
2023-04-02T18:30:32.327Z,102311.75
2023-04-02T18:33:13.782Z,102308.09
2023-04-02T18:35:54.494Z,102322.31
2023-04-02T18:38:30.501Z,102322.69
2023-04-02T18:41:08.081Z,102322.06
2023-04-02T18:43:48.100Z,102337.13
2023-04-02T18:46:30.734Z,102331.97
2023-04-02T18:49:02.551Z,102333.41
2023-04-02T18:51:39.487Z,102342.13
2023-04-02T18:54:20.320Z,102338.59
2023-04-02T18:56:48.950Z,102349.34
2023-04-02T18:59:32.227Z,102352.84
2023-04-02T19:02:08.105Z,102352.59
2023-04-02T19:04:43.833Z,102351.25
2023-04-02T19:07:18.670Z,102360.28
2023-04-02T19:09:51.031Z,102365.91
2023-04-02T19:12:23.926Z,102371.31
2023-04-02T19:14:53.892Z,102369.13
2023-04-02T19:17:31.864Z,102371.59
2023-04-02T19:20:16.665Z,102375.31
2023-04-02T19:22:56.392Z,102380.84
2023-04-02T19:25:41.660Z,102378.34
2023-04-02T19:28:19.560Z,102377.19
2023-04-02T19:31:10.671Z,102382.91
2023-04-02T19:33:46.626Z,102386.91
2023-04-02T19:36:33.204Z,102391.75
2023-04-02T19:39:19.249Z,102395.16
2023-04-02T19:41:53.258Z,102396.41
2023-04-02T19:44:24.079Z,102392.97
2023-04-02T19:46:54.211Z,102397.53
2023-04-02T19:49:28.410Z,102401.84
2023-04-02T19:51:59.847Z,102405.16
2023-04-02T19:54:32.308Z,102401.34
2023-04-02T19:57:04.087Z,102404.13
2023-04-02T19:59:35.046Z,102403.63
2023-04-02T20:02:07.158Z,102411.22
2023-04-02T20:04:36.056Z,102416.38
2023-04-02T20:07:05.079Z,102411.91
2023-04-02T20:09:35.301Z,102421.88
2023-04-02T20:12:04.778Z,102409.31
2023-04-02T20:14:33.999Z,102420.34
2023-04-02T20:17:04.469Z,102423.88
2023-04-02T20:19:33.819Z,102426.81
2023-04-02T20:22:05.305Z,102435.06
2023-04-02T20:24:35.849Z,102433.16
2023-04-02T20:27:05.057Z,102442.28
2023-04-02T20:29:33.784Z,102431.63
2023-04-02T20:32:03.079Z,102435.28
2023-04-02T20:34:32.891Z,102440.78
2023-04-02T20:37:02.047Z,102450.06
2023-04-02T20:39:31.304Z,102448.56
2023-04-02T20:42:03.653Z,102454.25
2023-04-02T20:44:32.532Z,102458.91
2023-04-02T20:47:01.958Z,102462.53
2023-04-02T20:49:30.743Z,102463.94
2023-04-02T20:51:59.577Z,102468.59
2023-04-02T20:54:28.768Z,102474.28
2023-04-02T20:56:57.685Z,102472.75
2023-04-02T20:59:28.202Z,102477.03
2023-04-02T21:01:57.152Z,102481.53
2023-04-02T21:04:25.964Z,102477.72
2023-04-02T21:06:57.198Z,102481.00
2023-04-02T21:09:27.088Z,102485.66
2023-04-02T21:11:56.368Z,102485.00
2023-04-02T21:14:27.495Z,102493.81
2023-04-02T21:16:56.287Z,102497.44
2023-04-02T21:19:25.428Z,102498.09
2023-04-02T21:21:56.413Z,102498.78
2023-04-02T21:24:25.464Z,102501.53
2023-04-02T21:26:54.615Z,102497.13
2023-04-02T21:29:23.766Z,102503.13
2023-04-02T21:31:54.175Z,102505.19
2023-04-02T21:34:23.466Z,102503.00
2023-04-02T21:36:52.425Z,102508.34
2023-04-02T21:39:23.633Z,102504.22
2023-04-02T21:41:53.860Z,102504.22
2023-04-02T21:44:24.507Z,102499.75
2023-04-02T21:46:55.262Z,102492.84
2023-04-02T21:49:25.763Z,102498.91
2023-04-02T21:51:54.954Z,102505.81
2023-04-02T21:54:24.063Z,102498.22
2023-04-02T21:56:53.520Z,102506.47
2023-04-02T21:59:22.306Z,102510.28
2023-04-02T22:01:54.375Z,102508.56
2023-04-02T22:04:25.460Z,102513.19
2023-04-02T22:06:55.302Z,102520.97
2023-04-02T22:09:27.169Z,102512.06
2023-04-02T22:11:59.963Z,102519.63
2023-04-02T22:14:29.336Z,102520.84
2023-04-02T22:16:59.977Z,102528.09
2023-04-02T22:19:29.568Z,102525.34
2023-04-02T22:21:58.485Z,102531.38
2023-04-02T22:24:27.586Z,102530.00
2023-04-02T22:26:58.531Z,102524.50
2023-04-02T22:29:27.842Z,102529.84
2023-04-02T22:31:58.624Z,102533.47
2023-04-02T22:34:27.475Z,102538.28
2023-04-02T22:36:56.837Z,102543.97
2023-04-02T22:39:25.987Z,102540.53
2023-04-02T22:41:55.151Z,102548.78
2023-04-02T22:44:24.112Z,102545.34
2023-04-02T22:46:53.194Z,102547.59
2023-04-02T22:49:23.402Z,102547.09
2023-04-02T22:51:53.802Z,102546.94
2023-04-02T22:54:24.402Z,102547.09
2023-04-02T22:57:00.178Z,102553.31
2023-04-02T22:59:34.170Z,102557.97
2023-04-02T23:02:03.449Z,102561.75
2023-04-02T23:04:36.130Z,102559.00
2023-04-02T23:07:05.076Z,102557.28
2023-04-02T23:09:34.073Z,102556.97
2023-04-02T23:12:03.485Z,102558.31
2023-04-02T23:14:33.357Z,102556.81
2023-04-02T23:17:02.642Z,102563.34
2023-04-02T23:19:33.950Z,102559.72
2023-04-02T23:22:03.232Z,102564.38
2023-04-02T23:24:33.085Z,102558.72
2023-04-02T23:27:02.150Z,102556.97
2023-04-02T23:29:31.449Z,102567.13
2023-04-02T23:32:01.564Z,102567.69
2023-04-02T23:34:30.676Z,102568.69
2023-04-02T23:37:01.500Z,102576.94
2023-04-02T23:39:31.300Z,102575.09
2023-04-02T23:42:00.918Z,102577.69
2023-04-02T23:44:30.041Z,102572.88
2023-04-02T23:47:02.349Z,102572.03
2023-04-02T23:49:31.802Z,102584.88
2023-04-02T23:52:07.180Z,102578.34
2023-04-02T23:54:39.449Z,102581.13
2023-04-02T23:59:43.078Z,102582.19
